sensor_id;sensor_type;location;lat;lon;timestamp;pressure;altitude;pressure_sealevel;temperature;humidity
76940;BME280;65885;55.848;35.916;2023-07-20T00:00:33;98038.22;;;13.17;77.40
76940;BME280;65885;55.848;35.916;2023-07-20T00:03:10;98036.41;;;13.18;77.96
76940;BME280;65885;55.848;35.916;2023-07-20T00:05:44;98038.72;;;13.22;77.79
76940;BME280;65885;55.848;35.916;2023-07-20T00:08:11;98038.63;;;13.24;77.78
76940;BME280;65885;55.848;35.916;2023-07-20T00:10:40;98033.00;;;13.28;77.83
76940;BME280;65885;55.848;35.916;2023-07-20T00:13:07;98029.19;;;13.32;78.09
76940;BME280;65885;55.848;35.916;2023-07-20T00:15:35;98035.03;;;13.36;78.46
76940;BME280;65885;55.848;35.916;2023-07-20T00:18:03;98032.91;;;13.41;78.26
76940;BME280;65885;55.848;35.916;2023-07-20T00:20:31;98031.75;;;13.45;78.33
76940;BME280;65885;55.848;35.916;2023-07-20T00:22:59;98034.13;;;13.48;78.50
76940;BME280;65885;55.848;35.916;2023-07-20T00:25:27;98037.25;;;13.53;78.65
76940;BME280;65885;55.848;35.916;2023-07-20T00:27:54;98036.91;;;13.58;78.51
76940;BME280;65885;55.848;35.916;2023-07-20T00:30:22;98043.63;;;13.62;78.52
76940;BME280;65885;55.848;35.916;2023-07-20T00:32:49;98041.44;;;13.67;78.79
76940;BME280;65885;55.848;35.916;2023-07-20T00:35:16;98041.13;;;13.72;78.84
76940;BME280;65885;55.848;35.916;2023-07-20T00:37:44;98040.03;;;13.74;78.39
76940;BME280;65885;55.848;35.916;2023-07-20T00:40:13;98037.19;;;13.77;78.53
76940;BME280;65885;55.848;35.916;2023-07-20T00:42:40;98031.78;;;13.79;78.40
76940;BME280;65885;55.848;35.916;2023-07-20T00:45:08;98045.53;;;13.82;78.38
76940;BME280;65885;55.848;35.916;2023-07-20T00:47:36;98042.06;;;13.82;78.28
76940;BME280;65885;55.848;35.916;2023-07-20T00:50:05;98049.88;;;13.83;78.40
76940;BME280;65885;55.848;35.916;2023-07-20T00:52:33;98047.13;;;13.85;78.25
76940;BME280;65885;55.848;35.916;2023-07-20T00:55:01;98055.88;;;13.85;78.13
76940;BME280;65885;55.848;35.916;2023-07-20T00:57:32;98049.75;;;13.85;78.16
76940;BME280;65885;55.848;35.916;2023-07-20T01:00:00;98052.41;;;13.85;77.83
76940;BME280;65885;55.848;35.916;2023-07-20T01:02:31;98050.81;;;13.82;77.92
76940;BME280;65885;55.848;35.916;2023-07-20T01:04:59;98052.63;;;13.82;77.54
76940;BME280;65885;55.848;35.916;2023-07-20T01:07:31;98052.75;;;13.80;77.71
76940;BME280;65885;55.848;35.916;2023-07-20T01:10:03;98052.97;;;13.77;77.76
76940;BME280;65885;55.848;35.916;2023-07-20T01:12:39;98047.84;;;13.76;77.48
76940;BME280;65885;55.848;35.916;2023-07-20T01:15:09;98053.94;;;13.76;77.77
76940;BME280;65885;55.848;35.916;2023-07-20T01:17:36;98045.28;;;13.74;77.79
76940;BME280;65885;55.848;35.916;2023-07-20T01:20:05;98049.63;;;13.75;77.77
76940;BME280;65885;55.848;35.916;2023-07-20T01:22:57;98050.56;;;13.74;77.78
76940;BME280;65885;55.848;35.916;2023-07-20T01:25:33;98051.53;;;13.73;77.87
76940;BME280;65885;55.848;35.916;2023-07-20T01:31:21;98049.97;;;13.71;77.60
76940;BME280;65885;55.848;35.916;2023-07-20T01:33:52;98050.81;;;13.71;77.77
76940;BME280;65885;55.848;35.916;2023-07-20T01:36:21;98065.66;;;13.72;78.10
76940;BME280;65885;55.848;35.916;2023-07-20T01:38:51;98056.81;;;13.73;77.97
76940;BME280;65885;55.848;35.916;2023-07-20T01:41:19;98060.66;;;13.80;78.18
76940;BME280;65885;55.848;35.916;2023-07-20T01:43:47;98056.13;;;13.94;78.54
76940;BME280;65885;55.848;35.916;2023-07-20T01:46:15;98055.63;;;14.11;78.66
76940;BME280;65885;55.848;35.916;2023-07-20T01:48:43;98052.53;;;14.28;78.91
76940;BME280;65885;55.848;35.916;2023-07-20T01:51:11;98048.69;;;14.43;78.63
76940;BME280;65885;55.848;35.916;2023-07-20T01:53:38;98057.69;;;14.52;78.31
76940;BME280;65885;55.848;35.916;2023-07-20T01:56:06;98052.16;;;14.55;77.80
76940;BME280;65885;55.848;35.916;2023-07-20T01:58:33;98057.44;;;14.55;77.50
76940;BME280;65885;55.848;35.916;2023-07-20T02:01:01;98059.34;;;14.53;77.23
76940;BME280;65885;55.848;35.916;2023-07-20T02:03:28;98060.41;;;14.51;77.20
76940;BME280;65885;55.848;35.916;2023-07-20T02:05:57;98065.00;;;14.49;77.09
76940;BME280;65885;55.848;35.916;2023-07-20T02:08:25;98060.69;;;14.48;77.16
76940;BME280;65885;55.848;35.916;2023-07-20T02:10:52;98060.06;;;14.44;76.84
76940;BME280;65885;55.848;35.916;2023-07-20T02:13:19;98056.81;;;14.40;76.97
76940;BME280;65885;55.848;35.916;2023-07-20T02:15:47;98066.41;;;14.41;76.81
76940;BME280;65885;55.848;35.916;2023-07-20T02:18:15;98066.41;;;14.41;77.13
76940;BME280;65885;55.848;35.916;2023-07-20T02:20:43;98067.25;;;14.42;77.21
76940;BME280;65885;55.848;35.916;2023-07-20T02:23:12;98071.69;;;14.41;77.23
76940;BME280;65885;55.848;35.916;2023-07-20T02:25:40;98063.88;;;14.40;77.29
76940;BME280;65885;55.848;35.916;2023-07-20T02:28:07;98069.16;;;14.40;77.04
76940;BME280;65885;55.848;35.916;2023-07-20T02:30:37;98063.75;;;14.41;77.07
76940;BME280;65885;55.848;35.916;2023-07-20T02:33:06;98062.09;;;14.40;77.29
76940;BME280;65885;55.848;35.916;2023-07-20T02:35:34;98062.22;;;14.39;77.26
76940;BME280;65885;55.848;35.916;2023-07-20T02:38:01;98064.72;;;14.40;77.33
76940;BME280;65885;55.848;35.916;2023-07-20T02:40:30;98064.59;;;14.42;77.41
76940;BME280;65885;55.848;35.916;2023-07-20T02:42:58;98059.22;;;14.43;77.25
76940;BME280;65885;55.848;35.916;2023-07-20T02:45:26;98062.69;;;14.44;77.35
76940;BME280;65885;55.848;35.916;2023-07-20T02:47:53;98070.38;;;14.47;77.23
76940;BME280;65885;55.848;35.916;2023-07-20T02:50:21;98073.88;;;14.48;77.50
76940;BME280;65885;55.848;35.916;2023-07-20T02:52:48;98073.75;;;14.49;77.22
76940;BME280;65885;55.848;35.916;2023-07-20T02:55:16;98076.25;;;14.51;76.96
76940;BME280;65885;55.848;35.916;2023-07-20T02:57:44;98075.31;;;14.52;76.80
76940;BME280;65885;55.848;35.916;2023-07-20T03:00:13;98074.34;;;14.53;76.90
76940;BME280;65885;55.848;35.916;2023-07-20T03:02:43;98077.81;;;14.53;77.13
76940;BME280;65885;55.848;35.916;2023-07-20T03:05:13;98074.34;;;14.53;77.13
76940;BME280;65885;55.848;35.916;2023-07-20T03:07:40;98080.59;;;14.52;77.16
76940;BME280;65885;55.848;35.916;2023-07-20T03:10:10;98079.84;;;14.50;76.94
76940;BME280;65885;55.848;35.916;2023-07-20T03:12:37;98080.94;;;14.47;76.70
76940;BME280;65885;55.848;35.916;2023-07-20T03:15:08;98083.19;;;14.40;76.49
76940;BME280;65885;55.848;35.916;2023-07-20T03:17:35;98077.44;;;14.35;76.35
76940;BME280;65885;55.848;35.916;2023-07-20T03:20:03;98071.69;;;14.30;76.13
76940;BME280;65885;55.848;35.916;2023-07-20T03:22:34;98075.66;;;14.25;76.10
76940;BME280;65885;55.848;35.916;2023-07-20T03:25:02;98074.31;;;14.19;76.17
76940;BME280;65885;55.848;35.916;2023-07-20T03:27:32;98083.44;;;14.15;76.24
76940;BME280;65885;55.848;35.916;2023-07-20T03:29:59;98079.34;;;14.11;76.28
76940;BME280;65885;55.848;35.916;2023-07-20T03:32:29;98090.16;;;14.08;76.16
76940;BME280;65885;55.848;35.916;2023-07-20T03:34:56;98090.38;;;14.05;76.23
76940;BME280;65885;55.848;35.916;2023-07-20T03:37:23;98094.94;;;14.03;76.51
76940;BME280;65885;55.848;35.916;2023-07-20T03:39:51;98086.31;;;14.01;76.71
76940;BME280;65885;55.848;35.916;2023-07-20T03:42:18;98086.44;;;13.99;76.92
76940;BME280;65885;55.848;35.916;2023-07-20T03:44:45;98087.41;;;13.98;76.81
76940;BME280;65885;55.848;35.916;2023-07-20T03:47:13;98083.81;;;13.99;77.29
76940;BME280;65885;55.848;35.916;2023-07-20T03:49:42;98087.28;;;14.00;77.33
76940;BME280;65885;55.848;35.916;2023-07-20T03:52:09;98097.56;;;14.03;77.55
76940;BME280;65885;55.848;35.916;2023-07-20T03:54:36;98089.53;;;14.04;77.41
76940;BME280;65885;55.848;35.916;2023-07-20T03:57:04;98095.44;;;14.08;77.64
76940;BME280;65885;55.848;35.916;2023-07-20T03:59:32;98095.19;;;14.11;77.64
76940;BME280;65885;55.848;35.916;2023-07-20T04:01:59;98099.28;;;14.15;77.99
76940;BME280;65885;55.848;35.916;2023-07-20T04:04:26;98100.69;;;14.19;78.01
76940;BME280;65885;55.848;35.916;2023-07-20T04:06:56;98095.91;;;14.24;78.23
76940;BME280;65885;55.848;35.916;2023-07-20T04:09:24;98090.16;;;14.30;78.26
76940;BME280;65885;55.848;35.916;2023-07-20T04:11:51;98094.97;;;14.36;78.33
76940;BME280;65885;55.848;35.916;2023-07-20T04:14:18;98090.88;;;14.43;78.38
76940;BME280;65885;55.848;35.916;2023-07-20T04:16:46;98104.44;;;14.50;78.54
76940;BME280;65885;55.848;35.916;2023-07-20T04:19:14;98097.63;;;14.59;78.47
76940;BME280;65885;55.848;35.916;2023-07-20T04:21:41;98099.66;;;14.66;78.47
76940;BME280;65885;55.848;35.916;2023-07-20T04:24:10;98101.78;;;14.73;78.32
76940;BME280;65885;55.848;35.916;2023-07-20T04:26:38;98099.59;;;14.78;78.35
76940;BME280;65885;55.848;35.916;2023-07-20T04:29:05;98101.50;;;14.87;78.39
76940;BME280;65885;55.848;35.916;2023-07-20T04:31:33;98097.28;;;14.95;78.31
76940;BME280;65885;55.848;35.916;2023-07-20T04:34:01;98105.41;;;15.04;78.19
76940;BME280;65885;55.848;35.916;2023-07-20T04:36:28;98103.00;;;15.12;78.25
76940;BME280;65885;55.848;35.916;2023-07-20T04:38:56;98111.97;;;15.20;78.26
76940;BME280;65885;55.848;35.916;2023-07-20T04:41:24;98107.88;;;15.27;78.37
76940;BME280;65885;55.848;35.916;2023-07-20T04:43:52;98103.88;;;15.33;78.12
76940;BME280;65885;55.848;35.916;2023-07-20T04:46:19;98111.28;;;15.39;77.79
76940;BME280;65885;55.848;35.916;2023-07-20T04:48:47;98119.44;;;15.47;77.88
76940;BME280;65885;55.848;35.916;2023-07-20T04:51:14;98113.50;;;15.55;77.76
76940;BME280;65885;55.848;35.916;2023-07-20T04:53:43;98105.09;;;15.61;77.77
76940;BME280;65885;55.848;35.916;2023-07-20T04:56:11;98117.81;;;15.67;77.69
76940;BME280;65885;55.848;35.916;2023-07-20T04:58:39;98119.94;;;15.73;77.66
76940;BME280;65885;55.848;35.916;2023-07-20T05:01:08;98118.56;;;15.79;77.60
76940;BME280;65885;55.848;35.916;2023-07-20T05:03:35;98114.59;;;15.85;77.48
76940;BME280;65885;55.848;35.916;2023-07-20T05:06:03;98119.91;;;15.94;77.61
76940;BME280;65885;55.848;35.916;2023-07-20T05:08:30;98126.31;;;16.13;78.14
76940;BME280;65885;55.848;35.916;2023-07-20T05:10:58;98111.84;;;16.47;78.34
76940;BME280;65885;55.848;35.916;2023-07-20T05:13:26;98119.38;;;16.92;78.25
76940;BME280;65885;55.848;35.916;2023-07-20T05:15:55;98119.72;;;17.37;77.65
76940;BME280;65885;55.848;35.916;2023-07-20T05:18:23;98114.72;;;17.83;76.54
76940;BME280;65885;55.848;35.916;2023-07-20T05:20:51;98117.31;;;18.21;75.25
76940;BME280;65885;55.848;35.916;2023-07-20T05:23:21;98113.09;;;18.56;74.15
76940;BME280;65885;55.848;35.916;2023-07-20T05:25:54;98111.56;;;18.91;73.33
76940;BME280;65885;55.848;35.916;2023-07-20T05:28:22;98118.50;;;19.19;71.75
76940;BME280;65885;55.848;35.916;2023-07-20T05:30:50;98117.75;;;19.45;70.88
76940;BME280;65885;55.848;35.916;2023-07-20T05:33:20;98119.16;;;19.66;70.31
76940;BME280;65885;55.848;35.916;2023-07-20T05:35:47;98114.19;;;19.89;70.24
76940;BME280;65885;55.848;35.916;2023-07-20T05:38:15;98112.00;;;20.11;69.96
76940;BME280;65885;55.848;35.916;2023-07-20T05:40:45;98121.13;;;20.34;69.41
76940;BME280;65885;55.848;35.916;2023-07-20T05:43:12;98114.91;;;20.52;68.63
76940;BME280;65885;55.848;35.916;2023-07-20T05:45:41;98110.50;;;20.68;68.22
76940;BME280;65885;55.848;35.916;2023-07-20T05:48:09;98116.72;;;20.85;67.00
76940;BME280;65885;55.848;35.916;2023-07-20T05:50:41;98119.47;;;21.01;67.10
76940;BME280;65885;55.848;35.916;2023-07-20T05:53:09;98117.84;;;21.17;65.66
76940;BME280;65885;55.848;35.916;2023-07-20T05:55:37;98113.56;;;21.32;65.54
76940;BME280;65885;55.848;35.916;2023-07-20T05:58:05;98113.88;;;21.45;64.87
76940;BME280;65885;55.848;35.916;2023-07-20T06:00:32;98117.91;;;21.57;64.11
76940;BME280;65885;55.848;35.916;2023-07-20T06:03:00;98124.59;;;21.70;63.33
76940;BME280;65885;55.848;35.916;2023-07-20T06:05:27;98120.94;;;21.79;63.84
76940;BME280;65885;55.848;35.916;2023-07-20T06:07:57;98122.09;;;21.93;64.15
76940;BME280;65885;55.848;35.916;2023-07-20T06:10:25;98130.94;;;22.09;65.00
76940;BME280;65885;55.848;35.916;2023-07-20T06:12:53;98127.56;;;22.32;65.24
76940;BME280;65885;55.848;35.916;2023-07-20T06:15:25;98118.44;;;22.65;65.00
76940;BME280;65885;55.848;35.916;2023-07-20T06:17:54;98118.63;;;23.03;65.10
76940;BME280;65885;55.848;35.916;2023-07-20T06:20:22;98119.56;;;23.41;64.71
76940;BME280;65885;55.848;35.916;2023-07-20T06:22:49;98119.66;;;23.79;64.35
76940;BME280;65885;55.848;35.916;2023-07-20T06:25:19;98114.47;;;24.15;63.98
76940;BME280;65885;55.848;35.916;2023-07-20T06:27:49;98112.06;;;24.58;63.62
76940;BME280;65885;55.848;35.916;2023-07-20T06:30:17;98114.22;;;24.99;63.50
76940;BME280;65885;55.848;35.916;2023-07-20T06:32:44;98111.38;;;25.36;61.79
76940;BME280;65885;55.848;35.916;2023-07-20T06:35:12;98117.94;;;25.70;61.11
76940;BME280;65885;55.848;35.916;2023-07-20T06:37:40;98112.75;;;25.90;61.00
76940;BME280;65885;55.848;35.916;2023-07-20T06:40:08;98127.66;;;25.92;60.29
76940;BME280;65885;55.848;35.916;2023-07-20T06:42:37;98120.88;;;25.75;60.16
76940;BME280;65885;55.848;35.916;2023-07-20T06:45:05;98120.00;;;25.53;59.71
76940;BME280;65885;55.848;35.916;2023-07-20T06:47:33;98119.34;;;25.30;59.62
76940;BME280;65885;55.848;35.916;2023-07-20T06:50:00;98118.50;;;25.08;58.90
76940;BME280;65885;55.848;35.916;2023-07-20T06:52:30;98113.31;;;24.91;60.42
76940;BME280;65885;55.848;35.916;2023-07-20T06:54:58;98106.94;;;24.78;60.60
76940;BME280;65885;55.848;35.916;2023-07-20T06:57:25;98113.44;;;24.69;61.69
76940;BME280;65885;55.848;35.916;2023-07-20T06:59:54;98105.28;;;24.62;62.09
76940;BME280;65885;55.848;35.916;2023-07-20T07:02:21;98118.59;;;24.55;62.20
76940;BME280;65885;55.848;35.916;2023-07-20T07:04:48;98111.59;;;24.54;62.91
76940;BME280;65885;55.848;35.916;2023-07-20T07:07:16;98111.78;;;24.53;62.86
76940;BME280;65885;55.848;35.916;2023-07-20T07:09:43;98102.44;;;24.49;62.76
76940;BME280;65885;55.848;35.916;2023-07-20T07:12:11;98112.50;;;24.47;61.15
76940;BME280;65885;55.848;35.916;2023-07-20T07:14:39;98111.03;;;24.44;59.91
76940;BME280;65885;55.848;35.916;2023-07-20T07:17:07;98116.59;;;24.43;59.39
76940;BME280;65885;55.848;35.916;2023-07-20T07:19:35;98116.59;;;24.43;59.60
76940;BME280;65885;55.848;35.916;2023-07-20T07:22:04;98118.59;;;24.41;59.35
76940;BME280;65885;55.848;35.916;2023-07-20T07:24:31;98133.69;;;24.42;59.09
76940;BME280;65885;55.848;35.916;2023-07-20T07:27:00;98132.19;;;24.39;59.43
76940;BME280;65885;55.848;35.916;2023-07-20T07:29:27;98124.03;;;24.32;59.28
76940;BME280;65885;55.848;35.916;2023-07-20T07:31:55;98131.41;;;24.30;60.71
76940;BME280;65885;55.848;35.916;2023-07-20T07:34:23;98123.75;;;24.27;61.41
76940;BME280;65885;55.848;35.916;2023-07-20T07:36:52;98126.13;;;24.22;60.77
76940;BME280;65885;55.848;35.916;2023-07-20T07:39:19;98122.19;;;24.18;60.23
76940;BME280;65885;55.848;35.916;2023-07-20T07:41:47;98125.13;;;24.23;62.61
76940;BME280;65885;55.848;35.916;2023-07-20T07:44:15;98122.88;;;24.35;62.95
76940;BME280;65885;55.848;35.916;2023-07-20T07:46:42;98127.75;;;24.46;63.48
76940;BME280;65885;55.848;35.916;2023-07-20T07:49:10;98119.44;;;24.56;62.31
76940;BME280;65885;55.848;35.916;2023-07-20T07:51:39;98126.19;;;24.67;62.49
76940;BME280;65885;55.848;35.916;2023-07-20T07:54:06;98127.22;;;24.80;62.89
76940;BME280;65885;55.848;35.916;2023-07-20T07:56:34;98119.06;;;24.88;61.47
76940;BME280;65885;55.848;35.916;2023-07-20T07:59:01;98119.06;;;24.88;60.22
76940;BME280;65885;55.848;35.916;2023-07-20T08:01:29;98123.50;;;24.81;59.75
76940;BME280;65885;55.848;35.916;2023-07-20T08:03:56;98122.59;;;24.74;59.70
76940;BME280;65885;55.848;35.916;2023-07-20T08:06:24;98128.59;;;24.76;61.04
76940;BME280;65885;55.848;35.916;2023-07-20T08:08:53;98127.31;;;24.87;61.29
76940;BME280;65885;55.848;35.916;2023-07-20T08:11:20;98133.41;;;24.96;60.65
76940;BME280;65885;55.848;35.916;2023-07-20T08:13:48;98138.28;;;25.07;60.96
76940;BME280;65885;55.848;35.916;2023-07-20T08:16:15;98129.69;;;25.11;60.38
76940;BME280;65885;55.848;35.916;2023-07-20T08:18:43;98123.75;;;25.16;60.29
76940;BME280;65885;55.848;35.916;2023-07-20T08:21:11;98126.16;;;25.26;59.81
76940;BME280;65885;55.848;35.916;2023-07-20T08:23:38;98123.41;;;25.40;59.23
76940;BME280;65885;55.848;35.916;2023-07-20T08:26:07;98128.13;;;25.60;57.49
76940;BME280;65885;55.848;35.916;2023-07-20T08:28:35;98125.41;;;25.75;58.54
76940;BME280;65885;55.848;35.916;2023-07-20T08:31:05;98125.16;;;25.91;56.30
76940;BME280;65885;55.848;35.916;2023-07-20T08:33:33;98138.13;;;26.09;56.63
76940;BME280;65885;55.848;35.916;2023-07-20T08:36:00;98131.84;;;26.23;55.28
76940;BME280;65885;55.848;35.916;2023-07-20T08:38:29;98129.38;;;26.28;55.09
76940;BME280;65885;55.848;35.916;2023-07-20T08:40:57;98127.03;;;26.18;54.33
76940;BME280;65885;55.848;35.916;2023-07-20T08:43:27;98135.66;;;26.07;54.32
76940;BME280;65885;55.848;35.916;2023-07-20T08:45:56;98128.53;;;25.99;56.07
76940;BME280;65885;55.848;35.916;2023-07-20T08:48:24;98127.25;;;25.95;55.38
76940;BME280;65885;55.848;35.916;2023-07-20T08:50:52;98128.53;;;25.99;54.84
76940;BME280;65885;55.848;35.916;2023-07-20T08:53:20;98125.72;;;26.08;54.83
76940;BME280;65885;55.848;35.916;2023-07-20T08:55:50;98115.50;;;26.24;54.90
76940;BME280;65885;55.848;35.916;2023-07-20T08:58:18;98124.53;;;26.45;55.40
76940;BME280;65885;55.848;35.916;2023-07-20T09:00:47;98129.63;;;26.61;54.53
76940;BME280;65885;55.848;35.916;2023-07-20T09:03:16;98132.94;;;26.63;55.11
76940;BME280;65885;55.848;35.916;2023-07-20T09:05:44;98127.22;;;26.45;54.16
76940;BME280;65885;55.848;35.916;2023-07-20T09:08:12;98131.44;;;26.26;55.85
76940;BME280;65885;55.848;35.916;2023-07-20T09:10:39;98122.97;;;26.01;55.71
76940;BME280;65885;55.848;35.916;2023-07-20T09:13:07;98118.84;;;25.77;55.75
76940;BME280;65885;55.848;35.916;2023-07-20T09:15:34;98122.97;;;25.58;55.27
76940;BME280;65885;55.848;35.916;2023-07-20T09:18:03;98113.94;;;25.44;54.29
76940;BME280;65885;55.848;35.916;2023-07-20T09:20:32;98115.53;;;25.39;55.19
76940;BME280;65885;55.848;35.916;2023-07-20T09:23:04;98116.91;;;25.50;56.12
76940;BME280;65885;55.848;35.916;2023-07-20T09:25:32;98118.09;;;25.68;56.78
76940;BME280;65885;55.848;35.916;2023-07-20T09:28:03;98108.44;;;25.95;56.94
76940;BME280;65885;55.848;35.916;2023-07-20T09:30:30;98114.91;;;26.29;55.00
76940;BME280;65885;55.848;35.916;2023-07-20T09:32:58;98122.38;;;26.62;55.15
76940;BME280;65885;55.848;35.916;2023-07-20T09:35:28;98125.56;;;26.78;53.96
76940;BME280;65885;55.848;35.916;2023-07-20T09:37:59;98135.75;;;26.83;51.35
76940;BME280;65885;55.848;35.916;2023-07-20T09:40:28;98137.91;;;26.66;50.78
76940;BME280;65885;55.848;35.916;2023-07-20T09:42:55;98143.84;;;26.27;51.66
76940;BME280;65885;55.848;35.916;2023-07-20T09:45:29;98144.31;;;25.66;51.77
76940;BME280;65885;55.848;35.916;2023-07-20T09:48:03;98140.03;;;25.00;52.70
76940;BME280;65885;55.848;35.916;2023-07-20T09:50:34;98151.34;;;24.36;54.30
76940;BME280;65885;55.848;35.916;2023-07-20T09:53:01;98158.88;;;23.72;53.96
76940;BME280;65885;55.848;35.916;2023-07-20T09:55:29;98158.22;;;23.16;56.43
76940;BME280;65885;55.848;35.916;2023-07-20T09:57:57;98165.03;;;22.71;57.84
76940;BME280;65885;55.848;35.916;2023-07-20T10:00:26;98168.97;;;22.28;58.87
76940;BME280;65885;55.848;35.916;2023-07-20T10:02:54;98176.31;;;22.01;61.58
76940;BME280;65885;55.848;35.916;2023-07-20T10:05:24;98160.63;;;21.82;62.94
76940;BME280;65885;55.848;35.916;2023-07-20T10:07:57;98175.63;;;21.75;64.56
76940;BME280;65885;55.848;35.916;2023-07-20T10:10:25;98172.47;;;21.71;65.35
76940;BME280;65885;55.848;35.916;2023-07-20T10:12:53;98171.13;;;21.67;65.41
76940;BME280;65885;55.848;35.916;2023-07-20T10:15:24;98160.63;;;21.66;66.06
76940;BME280;65885;55.848;35.916;2023-07-20T10:18:03;98161.28;;;21.76;66.90
76940;BME280;65885;55.848;35.916;2023-07-20T10:20:39;98157.94;;;21.98;67.63
76940;BME280;65885;55.848;35.916;2023-07-20T10:23:08;98161.13;;;22.26;67.41
76940;BME280;65885;55.848;35.916;2023-07-20T10:25:37;98155.06;;;22.57;66.93
76940;BME280;65885;55.848;35.916;2023-07-20T10:28:07;98148.47;;;22.92;66.62
76940;BME280;65885;55.848;35.916;2023-07-20T10:30:35;98154.28;;;23.26;65.26
76940;BME280;65885;55.848;35.916;2023-07-20T10:33:04;98165.53;;;23.53;65.14
76940;BME280;65885;55.848;35.916;2023-07-20T10:35:52;98168.41;;;23.74;64.80
76940;BME280;65885;55.848;35.916;2023-07-20T10:38:38;98170.09;;;23.75;62.01
76940;BME280;65885;55.848;35.916;2023-07-20T10:41:16;98159.72;;;23.72;61.40
76940;BME280;65885;55.848;35.916;2023-07-20T10:43:44;98154.59;;;23.63;61.31
76940;BME280;65885;55.848;35.916;2023-07-20T10:46:12;98158.84;;;23.49;60.21
76940;BME280;65885;55.848;35.916;2023-07-20T10:48:59;98149.56;;;23.37;60.53
76940;BME280;65885;55.848;35.916;2023-07-20T10:51:27;98143.50;;;23.43;62.29
76940;BME280;65885;55.848;35.916;2023-07-20T10:53:57;98139.41;;;23.55;60.48
76940;BME280;65885;55.848;35.916;2023-07-20T10:56:26;98142.72;;;23.88;62.35
76940;BME280;65885;55.848;35.916;2023-07-20T10:58:58;98143.78;;;24.31;63.31
76940;BME280;65885;55.848;35.916;2023-07-20T11:01:29;98155.16;;;24.71;61.91
76940;BME280;65885;55.848;35.916;2023-07-20T11:03:58;98145.97;;;24.95;61.17
76940;BME280;65885;55.848;35.916;2023-07-20T11:06:30;98156.81;;;25.02;59.38
76940;BME280;65885;55.848;35.916;2023-07-20T11:09:06;98153.44;;;25.00;58.36
76940;BME280;65885;55.848;35.916;2023-07-20T11:11:37;98155.31;;;24.84;57.79
76940;BME280;65885;55.848;35.916;2023-07-20T11:14:06;98147.66;;;24.67;56.86
76940;BME280;65885;55.848;35.916;2023-07-20T11:16:35;98156.13;;;24.41;56.22
76940;BME280;65885;55.848;35.916;2023-07-20T11:19:04;98150.16;;;24.16;56.58
76940;BME280;65885;55.848;35.916;2023-07-20T11:21:36;98172.63;;;23.92;56.69
76940;BME280;65885;55.848;35.916;2023-07-20T11:24:07;98180.84;;;23.67;58.02
76940;BME280;65885;55.848;35.916;2023-07-20T11:26:47;98182.34;;;23.39;58.24
76940;BME280;65885;55.848;35.916;2023-07-20T11:29:16;98178.03;;;22.98;57.28
76940;BME280;65885;55.848;35.916;2023-07-20T11:31:45;98174.28;;;22.60;57.88
76940;BME280;65885;55.848;35.916;2023-07-20T11:34:15;98173.31;;;22.21;58.89
76940;BME280;65885;55.848;35.916;2023-07-20T11:36:45;98177.16;;;21.94;61.03
76940;BME280;65885;55.848;35.916;2023-07-20T11:39:15;98177.28;;;21.68;61.63
76940;BME280;65885;55.848;35.916;2023-07-20T11:41:47;98173.94;;;21.57;63.84
76940;BME280;65885;55.848;35.916;2023-07-20T11:44:16;98167.25;;;21.45;62.76
76940;BME280;65885;55.848;35.916;2023-07-20T11:46:44;98170.91;;;21.44;64.14
76940;BME280;65885;55.848;35.916;2023-07-20T11:49:12;98165.41;;;21.46;63.77
76940;BME280;65885;55.848;35.916;2023-07-20T11:51:40;98162.09;;;21.52;63.90
76940;BME280;65885;55.848;35.916;2023-07-20T11:54:09;98173.63;;;21.69;65.41
76940;BME280;65885;55.848;35.916;2023-07-20T11:56:41;98181.00;;;21.99;66.31
76940;BME280;65885;55.848;35.916;2023-07-20T11:59:09;98172.47;;;22.28;65.69
76940;BME280;65885;55.848;35.916;2023-07-20T12:01:36;98176.25;;;22.66;65.49
76940;BME280;65885;55.848;35.916;2023-07-20T12:04:04;98167.78;;;23.02;64.29
76940;BME280;65885;55.848;35.916;2023-07-20T12:06:33;98172.28;;;23.41;64.60
76940;BME280;65885;55.848;35.916;2023-07-20T12:09:00;98177.47;;;23.73;63.43
76940;BME280;65885;55.848;35.916;2023-07-20T12:11:32;98173.69;;;24.05;63.57
76940;BME280;65885;55.848;35.916;2023-07-20T12:14:01;98176.34;;;24.28;61.12
76940;BME280;65885;55.848;35.916;2023-07-20T12:16:30;98179.53;;;24.47;59.19
76940;BME280;65885;55.848;35.916;2023-07-20T12:19:01;98177.25;;;24.58;58.18
76940;BME280;65885;55.848;35.916;2023-07-20T12:21:29;98177.44;;;24.72;58.53
76940;BME280;65885;55.848;35.916;2023-07-20T12:23:57;98186.88;;;24.82;58.40
76940;BME280;65885;55.848;35.916;2023-07-20T12:26:25;98184.19;;;24.82;56.58
76940;BME280;65885;55.848;35.916;2023-07-20T12:28:52;98183.72;;;24.79;56.23
76940;BME280;65885;55.848;35.916;2023-07-20T12:31:22;98191.78;;;24.64;54.82
76940;BME280;65885;55.848;35.916;2023-07-20T12:33:50;98195.63;;;24.47;55.43
76940;BME280;65885;55.848;35.916;2023-07-20T12:36:18;98217.56;;;24.27;56.19
76940;BME280;65885;55.848;35.916;2023-07-20T12:38:45;98212.34;;;24.11;57.02
76940;BME280;65885;55.848;35.916;2023-07-20T12:41:13;98207.63;;;23.90;56.13
76940;BME280;65885;55.848;35.916;2023-07-20T12:43:41;98215.13;;;23.72;55.88
76940;BME280;65885;55.848;35.916;2023-07-20T12:46:09;98221.59;;;23.46;55.83
76940;BME280;65885;55.848;35.916;2023-07-20T12:48:39;98215.38;;;23.23;55.92
76940;BME280;65885;55.848;35.916;2023-07-20T12:51:08;98217.13;;;23.00;56.11
76940;BME280;65885;55.848;35.916;2023-07-20T12:53:36;98212.97;;;22.81;56.50
76940;BME280;65885;55.848;35.916;2023-07-20T12:56:05;98226.34;;;22.73;57.51
76940;BME280;65885;55.848;35.916;2023-07-20T12:58:32;98220.00;;;22.74;58.47
76940;BME280;65885;55.848;35.916;2023-07-20T13:01:00;98222.50;;;22.83;58.30